Provincetown, Massachusetts
Current Conditions -  °F | °C
As of 10:35 PM on Saturday 24 Jan 2015 (Local Time) from KPVC Reporting Station
Overcast Overcast  
Wind Chill: 25°   Ceiling: 800
Heat Index: 36°   Visibility: 10mi
Dew Point: 30°   Wind: 18mph
Humidity: 81%   Direction: 310°NW
Pressure: 29.24"   Gusts: 26mph
Location:  42.06°N, 70.18°W
Report Text: KPVC 250335Z 31016G23KT 10SM BKN008 BKN014 OVC035 02/M01 A2924 RMK AO1
Loading
Personal Weather Stations






























Interactive Weather Map New forecast layout! Learn more

10-Day Weather Forecast

Advertisements
Track Severe Weather on mobile